createdAt,value
2019-03-22T00:00:09.868Z,8.20
2019-03-22T00:01:09.870Z,8.29
2019-03-22T00:02:09.850Z,8.29
2019-03-22T00:03:09.836Z,8.40
2019-03-22T00:04:09.821Z,8.38
2019-03-22T00:05:09.811Z,8.36
2019-03-22T00:06:09.815Z,8.29
2019-03-22T00:07:09.795Z,8.30
2019-03-22T00:08:09.774Z,8.40
2019-03-22T00:09:09.762Z,8.36
2019-03-22T00:10:09.760Z,8.45
2019-03-22T00:11:09.770Z,8.50
2019-03-22T00:12:09.755Z,8.41
2019-03-22T00:13:09.728Z,8.45
2019-03-22T00:14:09.706Z,8.52
2019-03-22T00:15:09.702Z,8.55
2019-03-22T00:16:09.711Z,8.48
2019-03-22T00:17:09.682Z,8.52
2019-03-22T00:18:09.664Z,8.59
2019-03-22T00:19:09.656Z,8.58
2019-03-22T00:20:09.657Z,8.52
2019-03-22T00:21:09.651Z,8.55
2019-03-22T00:22:09.622Z,8.61
2019-03-22T00:23:09.621Z,8.56
2019-03-22T00:24:09.604Z,8.61
2019-03-22T00:25:09.603Z,8.65
2019-03-22T00:26:09.599Z,8.66
2019-03-22T00:27:16.502Z,8.68
2019-03-22T00:28:10.567Z,8.68
2019-03-22T00:29:09.567Z,8.71
2019-03-22T00:30:09.526Z,8.73
2019-03-22T00:31:09.534Z,8.77
2019-03-22T00:32:09.510Z,8.87
2019-03-22T00:33:09.505Z,8.77
2019-03-22T00:34:09.496Z,8.86
2019-03-22T00:35:09.480Z,8.91
2019-03-22T00:36:09.490Z,8.80
2019-03-22T00:37:09.467Z,8.95
2019-03-22T00:38:09.440Z,8.95
2019-03-22T00:39:09.439Z,8.98
2019-03-22T00:40:09.418Z,9.02
2019-03-22T00:41:09.425Z,9.05
2019-03-22T00:42:09.400Z,9.04
2019-03-22T00:43:09.404Z,9.02
2019-03-22T00:44:09.384Z,9.08
2019-03-22T00:45:09.383Z,9.08
2019-03-22T00:46:09.393Z,9.11
2019-03-22T00:47:09.349Z,9.10
2019-03-22T00:48:09.347Z,9.11
2019-03-22T00:49:09.333Z,9.15
2019-03-22T00:50:09.324Z,9.13
2019-03-22T00:51:09.312Z,9.17
2019-03-22T00:52:09.309Z,9.13
2019-03-22T00:53:09.323Z,9.18
2019-03-22T00:54:09.286Z,9.13
2019-03-22T00:55:09.268Z,9.08
2019-03-22T00:56:09.255Z,9.18
2019-03-22T00:57:09.254Z,9.11
2019-03-22T00:58:09.228Z,9.13
2019-03-22T00:59:09.211Z,9.10
2019-03-22T01:00:09.199Z,9.13
2019-03-22T01:01:09.185Z,9.17
2019-03-22T01:02:09.195Z,9.20
2019-03-22T01:03:09.176Z,9.14
2019-03-22T01:04:09.162Z,9.15
2019-03-22T01:05:09.150Z,9.23
2019-03-22T01:06:09.150Z,9.18
2019-03-22T01:07:09.155Z,9.26
2019-03-22T01:08:09.121Z,9.33
2019-03-22T01:09:09.117Z,9.33
2019-03-22T01:10:09.103Z,9.26
2019-03-22T01:11:09.089Z,9.39
2019-03-22T01:12:09.086Z,9.39
2019-03-22T01:13:09.066Z,9.31
2019-03-22T01:14:09.048Z,9.38
2019-03-22T01:15:09.033Z,9.46
2019-03-22T01:16:09.021Z,9.40
2019-03-22T01:17:09.024Z,9.40
2019-03-22T01:18:09.002Z,9.43
2019-03-22T01:19:08.993Z,9.48
2019-03-22T01:20:08.978Z,9.42
2019-03-22T01:21:08.977Z,9.51
2019-03-22T01:22:08.987Z,9.53
2019-03-22T01:23:08.949Z,9.60
2019-03-22T01:24:08.935Z,9.51
2019-03-22T01:25:08.932Z,9.57
2019-03-22T01:26:08.906Z,9.54
2019-03-22T01:27:08.923Z,9.56
2019-03-22T01:28:08.894Z,9.60
2019-03-22T01:29:08.943Z,9.48
2019-03-22T01:30:08.882Z,9.57
2019-03-22T01:31:08.868Z,9.51
2019-03-22T01:32:08.887Z,9.56
2019-03-22T01:33:08.847Z,9.51
2019-03-22T01:34:08.822Z,9.60
2019-03-22T01:35:08.814Z,9.60
2019-03-22T01:36:08.795Z,9.57
2019-03-22T01:37:08.833Z,9.64
2019-03-22T01:38:08.780Z,9.54
2019-03-22T01:39:08.766Z,9.57
2019-03-22T01:40:08.758Z,9.64
2019-03-22T01:41:08.758Z,9.64
2019-03-22T01:42:08.735Z,9.60
2019-03-22T01:43:08.762Z,9.58
2019-03-22T01:44:08.708Z,9.54
2019-03-22T01:45:08.698Z,9.60
2019-03-22T01:46:08.692Z,9.54
2019-03-22T01:47:08.686Z,9.60
2019-03-22T01:48:08.721Z,9.64
2019-03-22T01:49:08.683Z,9.58
2019-03-22T01:50:08.656Z,9.57
2019-03-22T01:51:08.632Z,9.71
2019-03-22T01:52:08.630Z,9.71
2019-03-22T01:53:08.646Z,9.64
2019-03-22T01:54:08.602Z,9.72
2019-03-22T01:55:08.602Z,9.69
2019-03-22T01:56:08.597Z,9.68
2019-03-22T01:57:08.566Z,9.75
2019-03-22T01:58:08.584Z,9.78
2019-03-22T01:59:08.543Z,9.78
2019-03-22T02:00:08.550Z,9.78
2019-03-22T02:01:08.529Z,9.79
2019-03-22T02:02:08.527Z,9.81
2019-03-22T02:03:08.537Z,9.83
2019-03-22T02:04:08.496Z,9.79
2019-03-22T02:05:08.478Z,9.86
2019-03-22T02:06:08.486Z,9.84
2019-03-22T02:07:08.459Z,9.84
2019-03-22T02:08:08.467Z,9.84
2019-03-22T02:09:08.439Z,9.93
2019-03-22T02:10:08.431Z,9.83
2019-03-22T02:11:08.415Z,9.86
2019-03-22T02:12:08.413Z,9.84
2019-03-22T02:13:08.433Z,9.86
2019-03-22T02:14:08.383Z,9.83
2019-03-22T02:15:08.376Z,9.74
2019-03-22T02:16:08.357Z,9.72
2019-03-22T02:17:08.343Z,9.74
2019-03-22T02:18:08.367Z,9.66
2019-03-22T02:19:08.338Z,9.74
2019-03-22T02:20:08.311Z,9.72
2019-03-22T02:21:08.317Z,9.72
2019-03-22T02:22:08.325Z,9.71
2019-03-22T02:23:08.289Z,9.66
2019-03-22T02:24:08.293Z,9.64
2019-03-22T02:25:08.270Z,9.61
2019-03-22T02:26:08.253Z,9.58
2019-03-22T02:27:08.247Z,9.58
2019-03-22T02:28:08.222Z,9.64
2019-03-22T02:29:08.231Z,9.65
2019-03-22T02:30:08.199Z,9.65
2019-03-22T02:31:08.192Z,9.74
2019-03-22T02:32:08.190Z,9.64
2019-03-22T02:33:08.190Z,9.66
2019-03-22T02:34:08.254Z,9.68
2019-03-22T02:35:08.152Z,9.65
2019-03-22T02:36:08.140Z,9.75
2019-03-22T02:37:08.144Z,9.71
2019-03-22T02:38:08.116Z,9.71
2019-03-22T02:39:08.123Z,9.66
2019-03-22T02:40:08.102Z,9.66
2019-03-22T02:41:08.114Z,9.71
2019-03-22T02:42:08.079Z,9.69
2019-03-22T02:43:08.055Z,9.71
2019-03-22T02:44:08.095Z,9.71
2019-03-22T02:45:08.056Z,9.58
2019-03-22T02:46:08.037Z,9.54
2019-03-22T02:47:08.015Z,9.51
2019-03-22T02:48:08.013Z,9.60
2019-03-22T02:49:08.032Z,9.57
2019-03-22T02:50:18.193Z,9.54
2019-03-22T02:51:08.964Z,9.51
2019-03-22T02:52:07.966Z,9.46
2019-03-22T02:53:07.953Z,9.50
2019-03-22T02:54:07.956Z,9.48
2019-03-22T02:55:07.940Z,9.46
2019-03-22T02:56:08.108Z,9.42
2019-03-22T02:57:07.915Z,9.50
2019-03-22T02:58:19.763Z,9.47
2019-03-22T02:59:08.910Z,9.51
2019-03-22T03:00:07.872Z,9.51
2019-03-22T03:01:07.861Z,9.57
2019-03-22T03:02:07.853Z,9.51
2019-03-22T03:03:07.841Z,9.60
2019-03-22T03:04:07.850Z,9.56
2019-03-22T03:05:07.921Z,9.54
2019-03-22T03:06:07.822Z,9.56
2019-03-22T03:07:07.803Z,9.61
2019-03-22T03:08:07.787Z,9.66
2019-03-22T03:09:07.783Z,9.69
2019-03-22T03:10:07.774Z,9.60
2019-03-22T03:11:07.749Z,9.57
2019-03-22T03:12:07.743Z,9.57
2019-03-22T03:13:07.730Z,9.57
2019-03-22T03:14:07.748Z,9.56
2019-03-22T03:15:07.715Z,9.58
2019-03-22T03:16:07.706Z,9.57
2019-03-22T03:17:07.683Z,9.58
2019-03-22T03:18:07.666Z,9.56
2019-03-22T03:19:07.674Z,9.50
2019-03-22T03:20:07.651Z,9.48
2019-03-22T03:21:07.653Z,9.51
2019-03-22T03:22:07.621Z,9.58
2019-03-22T03:23:07.618Z,9.57
2019-03-22T03:24:07.620Z,9.60
2019-03-22T03:25:07.603Z,9.56
2019-03-22T03:26:07.577Z,9.57
2019-03-22T03:27:07.581Z,9.51
2019-03-22T03:28:07.561Z,9.57
2019-03-22T03:29:07.566Z,9.57
2019-03-22T03:30:07.547Z,9.60
2019-03-22T03:31:07.559Z,9.57
2019-03-22T03:32:07.522Z,9.69
2019-03-22T03:33:07.533Z,9.68
2019-03-22T03:34:07.534Z,9.65
2019-03-22T03:35:07.531Z,9.65
2019-03-22T03:36:07.473Z,9.66
2019-03-22T03:37:07.465Z,9.71
2019-03-22T03:38:07.458Z,9.65
2019-03-22T03:39:07.436Z,9.81
2019-03-22T03:40:07.446Z,9.72
2019-03-22T03:41:07.424Z,9.76
2019-03-22T03:42:07.409Z,9.81
2019-03-22T03:43:07.397Z,9.83
2019-03-22T03:44:07.402Z,9.83
2019-03-22T03:45:07.403Z,9.86
2019-03-22T03:46:07.361Z,9.89
2019-03-22T03:47:10.242Z,9.81
2019-03-22T03:48:07.341Z,9.84
2019-03-22T03:49:07.330Z,9.84
2019-03-22T03:50:07.340Z,9.84
2019-03-22T03:51:07.308Z,9.89
2019-03-22T03:52:07.309Z,9.75
2019-03-22T03:53:07.293Z,9.81
2019-03-22T03:54:07.278Z,9.74
2019-03-22T03:55:07.286Z,9.78
2019-03-22T03:56:07.295Z,9.74
2019-03-22T03:57:07.231Z,9.66
2019-03-22T03:58:07.228Z,9.71
2019-03-22T03:59:07.214Z,9.69
2019-03-22T04:00:07.216Z,9.57
2019-03-22T04:01:07.195Z,9.61
2019-03-22T04:02:07.184Z,9.60
2019-03-22T04:03:07.176Z,9.54
2019-03-22T04:04:07.164Z,9.58
2019-03-22T04:05:07.292Z,9.51
2019-03-22T04:06:07.176Z,9.50
2019-03-22T04:07:07.125Z,9.48
2019-03-22T04:08:07.133Z,9.48
2019-03-22T04:09:07.108Z,9.46
2019-03-22T04:10:07.104Z,9.48
2019-03-22T04:11:07.088Z,9.43
2019-03-22T04:12:07.063Z,9.42
2019-03-22T04:13:07.055Z,9.53
2019-03-22T04:14:07.053Z,9.42
2019-03-22T04:15:07.049Z,9.46
2019-03-22T04:16:07.028Z,9.46
2019-03-22T04:17:07.022Z,9.40
2019-03-22T04:18:07.020Z,9.47
2019-03-22T04:19:06.996Z,9.50
2019-03-22T04:20:07.016Z,9.48
2019-03-22T04:21:06.983Z,9.48
2019-03-22T04:22:06.956Z,9.46
2019-03-22T04:23:06.965Z,9.46
2019-03-22T04:24:06.943Z,9.46
2019-03-22T04:25:06.948Z,9.48
2019-03-22T04:26:06.922Z,9.48
2019-03-22T04:27:06.915Z,9.53
2019-03-22T04:28:06.894Z,9.51
2019-03-22T04:29:08.277Z,9.54
2019-03-22T04:30:06.896Z,9.50
2019-03-22T04:31:06.858Z,9.51
2019-03-22T04:32:06.882Z,9.57
2019-03-22T04:33:07.154Z,9.57
2019-03-22T04:34:06.845Z,9.56
2019-03-22T04:35:06.826Z,9.61
2019-03-22T04:36:06.817Z,9.54
2019-03-22T04:37:06.788Z,9.53
2019-03-22T04:38:06.786Z,9.58
2019-03-22T04:39:06.812Z,9.61
2019-03-22T04:40:06.783Z,9.53
2019-03-22T04:41:06.788Z,9.60
2019-03-22T04:42:06.736Z,9.66
2019-03-22T04:43:06.723Z,9.57
2019-03-22T04:44:06.723Z,9.60
2019-03-22T04:45:06.715Z,9.60
2019-03-22T04:46:06.696Z,9.65
2019-03-22T04:47:06.676Z,9.60
2019-03-22T04:48:06.674Z,9.58
2019-03-22T04:49:06.666Z,9.69
2019-03-22T04:50:06.721Z,9.74
2019-03-22T04:51:06.641Z,9.65
2019-03-22T04:52:06.635Z,9.72
2019-03-22T04:53:06.616Z,9.69
2019-03-22T04:54:06.608Z,9.68
2019-03-22T04:55:06.591Z,9.75
2019-03-22T04:56:06.598Z,9.75
2019-03-22T04:57:06.579Z,9.75
2019-03-22T04:58:06.570Z,9.72
2019-03-22T04:59:14.164Z,9.79
2019-03-22T05:00:07.533Z,9.71
2019-03-22T05:01:06.553Z,9.69
2019-03-22T05:02:06.529Z,9.64
2019-03-22T05:03:06.535Z,9.68
2019-03-22T05:04:06.499Z,9.71
2019-03-22T05:05:06.485Z,9.61
2019-03-22T05:06:06.490Z,9.56
2019-03-22T05:07:06.457Z,9.60
2019-03-22T05:08:06.455Z,9.58
2019-03-22T05:09:06.439Z,9.61
2019-03-22T05:10:06.446Z,9.61
2019-03-22T05:11:06.429Z,9.56
2019-03-22T05:12:06.406Z,9.56
2019-03-22T05:13:06.401Z,9.53
2019-03-22T05:14:06.379Z,9.50
2019-03-22T05:15:06.382Z,9.48
2019-03-22T05:16:06.377Z,9.40
2019-03-22T05:17:06.352Z,9.46
2019-03-22T05:18:06.348Z,9.43
2019-03-22T05:19:06.331Z,9.46
2019-03-22T05:20:06.339Z,9.46
2019-03-22T05:21:06.316Z,9.42
2019-03-22T05:22:06.295Z,9.46
2019-03-22T05:23:06.287Z,9.50
2019-03-22T05:24:06.278Z,9.46
2019-03-22T05:25:06.281Z,9.50
2019-03-22T05:26:06.283Z,9.50
2019-03-22T05:27:06.248Z,9.43
2019-03-22T05:28:06.238Z,9.53
2019-03-22T05:29:06.223Z,9.48
2019-03-22T05:30:06.220Z,9.47
2019-03-22T05:31:06.222Z,9.50
2019-03-22T05:32:06.199Z,9.53
2019-03-22T05:33:06.175Z,9.47
2019-03-22T05:34:06.170Z,9.53
2019-03-22T05:35:07.386Z,9.46
2019-03-22T05:36:06.181Z,9.46
2019-03-22T05:37:06.133Z,9.46
2019-03-22T05:38:06.131Z,9.47
2019-03-22T05:39:06.118Z,9.47
2019-03-22T05:40:06.113Z,9.46
2019-03-22T05:41:06.093Z,9.51
2019-03-22T05:42:06.093Z,9.48
2019-03-22T05:43:06.068Z,9.46
2019-03-22T05:44:06.071Z,9.51
2019-03-22T05:45:06.036Z,9.50
2019-03-22T05:46:06.033Z,9.48
2019-03-22T05:47:06.056Z,9.51
2019-03-22T05:48:06.003Z,9.60
2019-03-22T05:49:06.018Z,9.61
2019-03-22T05:50:05.982Z,9.60
2019-03-22T05:51:05.983Z,9.64
2019-03-22T05:52:05.998Z,9.58
2019-03-22T05:53:05.957Z,9.66
2019-03-22T05:54:05.945Z,9.57
2019-03-22T05:55:05.933Z,9.69
2019-03-22T05:56:05.918Z,9.60
2019-03-22T05:57:13.122Z,9.68
2019-03-22T05:58:06.915Z,9.71
2019-03-22T05:59:05.895Z,9.61
2019-03-22T06:00:05.888Z,9.72
2019-03-22T06:01:05.877Z,9.69
2019-03-22T06:02:05.882Z,9.57
2019-03-22T06:03:05.859Z,9.56
2019-03-22T06:04:05.836Z,9.57
2019-03-22T06:05:05.825Z,9.54
2019-03-22T06:06:05.813Z,9.57
2019-03-22T06:07:05.818Z,9.53
2019-03-22T06:08:05.802Z,9.48
2019-03-22T06:09:05.791Z,9.50
2019-03-22T06:10:05.781Z,9.53
2019-03-22T06:11:05.774Z,9.50
2019-03-22T06:12:05.756Z,9.57
2019-03-22T06:13:05.742Z,9.64
2019-03-22T06:14:05.737Z,9.56
2019-03-22T06:15:05.740Z,9.51
2019-03-22T06:16:05.746Z,9.54
2019-03-22T06:17:05.719Z,9.57
2019-03-22T06:18:05.685Z,9.57
2019-03-22T06:19:05.673Z,9.60
2019-03-22T06:20:05.669Z,9.65
2019-03-22T06:21:05.698Z,9.57
2019-03-22T06:22:05.655Z,9.54
2019-03-22T06:23:05.632Z,9.64
2019-03-22T06:24:05.614Z,9.53
2019-03-22T06:25:05.600Z,9.56
2019-03-22T06:26:05.595Z,9.58
2019-03-22T06:27:05.594Z,9.57
2019-03-22T06:28:05.592Z,9.57
2019-03-22T06:29:05.555Z,9.58
2019-03-22T06:30:05.556Z,9.57
2019-03-22T06:31:05.561Z,9.60
2019-03-22T06:32:05.532Z,9.56
2019-03-22T06:33:05.536Z,9.57
2019-03-22T06:34:05.496Z,9.53
2019-03-22T06:35:05.490Z,9.64
2019-03-22T06:36:05.475Z,9.54
2019-03-22T06:37:05.472Z,9.64
2019-03-22T06:38:05.495Z,9.57
2019-03-22T06:39:05.438Z,9.56
2019-03-22T06:40:05.436Z,9.58
2019-03-22T06:41:05.421Z,9.54
2019-03-22T06:42:05.408Z,9.51
2019-03-22T06:43:05.423Z,9.54
2019-03-22T06:44:05.409Z,9.57
2019-03-22T06:45:05.400Z,9.58
2019-03-22T06:46:05.366Z,9.57
2019-03-22T06:47:05.354Z,9.54
2019-03-22T06:48:05.370Z,9.53
2019-03-22T06:49:05.335Z,9.56
2019-03-22T06:50:05.329Z,9.60
2019-03-22T06:51:05.341Z,9.64
2019-03-22T06:52:05.303Z,9.57
2019-03-22T06:53:05.320Z,9.56
2019-03-22T06:54:05.280Z,9.66
2019-03-22T06:55:05.279Z,9.69
2019-03-22T06:56:05.259Z,9.71
2019-03-22T06:57:05.251Z,9.71
2019-03-22T06:58:05.247Z,9.71
2019-03-22T06:59:05.227Z,9.74
2019-03-22T07:00:06.841Z,9.78
2019-03-22T07:01:05.210Z,9.81
2019-03-22T07:02:05.188Z,9.84
2019-03-22T07:03:05.183Z,9.86
2019-03-22T07:04:05.164Z,9.87
2019-03-22T07:05:05.158Z,9.94
2019-03-22T07:06:05.140Z,9.91
2019-03-22T07:07:05.135Z,9.91
2019-03-22T07:08:05.198Z,9.90
2019-03-22T07:09:05.113Z,9.90
2019-03-22T07:10:05.104Z,9.94
2019-03-22T07:11:05.107Z,9.91
2019-03-22T07:12:05.088Z,9.91
2019-03-22T07:13:05.088Z,9.96
2019-03-22T07:14:05.062Z,9.97
2019-03-22T07:15:05.043Z,10.05
2019-03-22T07:16:05.038Z,9.96
2019-03-22T07:17:05.020Z,9.99
2019-03-22T07:18:05.022Z,9.97
2019-03-22T07:19:04.988Z,9.94
2019-03-22T07:20:05.006Z,9.99
2019-03-22T07:21:05.062Z,9.93
2019-03-22T07:22:04.972Z,9.96
2019-03-22T07:23:04.980Z,10.02
2019-03-22T07:24:04.950Z,9.96
2019-03-22T07:25:04.926Z,9.94
2019-03-22T07:26:04.930Z,9.91
2019-03-22T07:27:04.907Z,9.93
2019-03-22T07:28:04.922Z,9.97
2019-03-22T07:29:04.928Z,9.93
2019-03-22T07:30:04.868Z,9.91
2019-03-22T07:31:04.874Z,9.94
2019-03-22T07:32:04.856Z,9.93
2019-03-22T07:33:04.855Z,9.90
2019-03-22T07:34:04.871Z,9.97
2019-03-22T07:35:04.826Z,10.01
2019-03-22T07:36:04.803Z,9.99
2019-03-22T07:37:04.800Z,9.99
2019-03-22T07:38:04.785Z,9.94
2019-03-22T07:39:04.794Z,10.08
2019-03-22T07:40:04.764Z,10.08
2019-03-22T07:41:04.760Z,10.05
2019-03-22T07:42:04.738Z,10.02
2019-03-22T07:43:04.728Z,9.93
2019-03-22T07:44:04.738Z,10.07
2019-03-22T07:45:04.710Z,10.02
2019-03-22T07:46:04.695Z,10.12
2019-03-22T07:47:04.700Z,10.01
2019-03-22T07:48:04.682Z,10.05
2019-03-22T07:49:04.713Z,9.97
2019-03-22T07:50:04.668Z,9.99
2019-03-22T07:51:04.668Z,9.99
2019-03-22T07:52:04.632Z,9.99
2019-03-22T07:53:04.616Z,10.07
2019-03-22T07:54:04.636Z,10.05
2019-03-22T07:55:04.616Z,10.02
2019-03-22T07:56:04.596Z,10.08
2019-03-22T07:57:04.581Z,10.08
2019-03-22T07:58:04.562Z,10.08
2019-03-22T07:59:04.583Z,10.01
2019-03-22T08:00:04.547Z,10.11
2019-03-22T08:01:04.526Z,10.14
2019-03-22T08:02:04.550Z,10.04
2019-03-22T08:03:04.522Z,10.11
2019-03-22T08:04:04.542Z,10.01
2019-03-22T08:05:04.488Z,10.08
2019-03-22T08:06:04.480Z,9.93
2019-03-22T08:07:04.474Z,9.96
2019-03-22T08:08:04.464Z,10.05
2019-03-22T08:09:04.446Z,10.02
2019-03-22T08:10:04.458Z,10.09
2019-03-22T08:11:04.429Z,10.12
2019-03-22T08:12:04.426Z,10.09
2019-03-22T08:13:04.400Z,10.11
2019-03-22T08:14:04.401Z,10.15
2019-03-22T08:15:04.389Z,10.15
2019-03-22T08:16:04.379Z,10.18
2019-03-22T08:17:04.350Z,10.20
2019-03-22T08:18:04.390Z,10.20
2019-03-22T08:19:04.341Z,10.27
2019-03-22T08:20:04.349Z,10.23
2019-03-22T08:21:04.317Z,10.20
2019-03-22T08:22:04.313Z,10.11
2019-03-22T08:23:04.302Z,10.20
2019-03-22T08:24:04.273Z,10.17
2019-03-22T08:25:04.305Z,10.12
2019-03-22T08:26:04.270Z,10.20
2019-03-22T08:27:04.280Z,10.11
2019-03-22T08:28:04.234Z,10.11
2019-03-22T08:29:04.223Z,10.07
2019-03-22T08:30:04.248Z,10.05
2019-03-22T08:31:05.553Z,9.96
2019-03-22T08:32:04.221Z,9.93
2019-03-22T08:33:04.232Z,9.96
2019-03-22T08:34:04.177Z,9.99
2019-03-22T08:35:04.181Z,10.01
2019-03-22T08:36:04.196Z,9.96
2019-03-22T08:37:04.159Z,9.93
2019-03-22T08:38:04.137Z,9.99
2019-03-22T08:39:04.121Z,10.12
2019-03-22T08:40:04.125Z,10.08
2019-03-22T08:41:04.142Z,10.09
2019-03-22T08:42:04.107Z,10.02
2019-03-22T08:43:04.110Z,10.11
2019-03-22T08:44:04.072Z,10.08
2019-03-22T08:45:04.094Z,10.12
2019-03-22T08:46:04.039Z,10.11
2019-03-22T08:47:04.079Z,10.11
2019-03-22T08:48:04.006Z,10.23
2019-03-22T08:49:04.074Z,10.15
2019-03-22T08:50:04.034Z,10.22
2019-03-22T08:51:03.986Z,10.22
2019-03-22T08:52:03.963Z,10.32
2019-03-22T08:53:03.972Z,10.38
2019-03-22T08:54:03.944Z,10.32
2019-03-22T08:55:03.955Z,10.33
2019-03-22T08:56:03.939Z,10.25
2019-03-22T08:57:03.948Z,10.36
2019-03-22T08:58:03.981Z,10.32
2019-03-22T08:59:03.900Z,10.34
2019-03-22T09:00:03.923Z,10.23
2019-03-22T09:01:03.869Z,10.38
2019-03-22T09:02:03.877Z,10.33
2019-03-22T09:03:03.849Z,10.38
2019-03-22T09:04:03.849Z,10.36
2019-03-22T09:05:03.824Z,10.40
2019-03-22T09:06:03.825Z,10.45
2019-03-22T09:07:03.838Z,10.45
2019-03-22T09:08:03.834Z,10.53
2019-03-22T09:09:03.808Z,10.52
2019-03-22T09:10:03.774Z,10.52
2019-03-22T09:11:03.789Z,10.55
2019-03-22T09:12:03.744Z,10.53
2019-03-22T09:13:03.754Z,10.60
2019-03-22T09:14:03.750Z,10.55
2019-03-22T09:15:03.709Z,10.56
2019-03-22T09:16:03.723Z,10.63
2019-03-22T09:17:03.705Z,10.59
2019-03-22T09:18:03.690Z,10.64
2019-03-22T09:19:03.678Z,10.63
2019-03-22T09:20:03.657Z,10.63
2019-03-22T09:21:03.659Z,10.64
2019-03-22T09:22:03.637Z,10.67
2019-03-22T09:23:03.659Z,10.74
2019-03-22T09:24:03.619Z,10.73
2019-03-22T09:25:03.624Z,10.67
2019-03-22T09:26:03.616Z,10.64
2019-03-22T09:27:03.607Z,10.56
2019-03-22T09:28:03.563Z,10.55
2019-03-22T09:29:03.580Z,10.45
2019-03-22T09:30:03.562Z,10.33
2019-03-22T09:31:10.161Z,10.34
2019-03-22T09:32:04.537Z,10.30
2019-03-22T09:33:03.598Z,10.25
2019-03-22T09:34:03.524Z,10.38
2019-03-22T09:35:03.584Z,10.41
2019-03-22T09:36:03.515Z,10.38
2019-03-22T09:37:03.534Z,10.41
2019-03-22T09:38:12.723Z,10.44
2019-03-22T09:39:04.476Z,10.45
2019-03-22T09:40:03.451Z,10.51
2019-03-22T09:41:03.535Z,10.55
2019-03-22T09:42:03.413Z,10.56
2019-03-22T09:43:03.418Z,10.52
2019-03-22T09:44:03.449Z,10.52
2019-03-22T09:45:03.384Z,10.33
2019-03-22T09:46:03.456Z,10.29
2019-03-22T09:47:03.410Z,10.33
2019-03-22T09:48:06.134Z,10.26
2019-03-22T09:49:03.402Z,10.18
2019-03-22T09:50:03.362Z,10.22
2019-03-22T09:51:03.334Z,10.18
2019-03-22T09:52:03.301Z,10.25
2019-03-22T09:53:03.352Z,10.14
2019-03-22T09:54:03.280Z,10.26
2019-03-22T09:55:13.162Z,10.22
2019-03-22T09:56:04.292Z,10.25
2019-03-22T09:57:03.242Z,10.36
2019-03-22T09:58:03.289Z,10.23
2019-03-22T09:59:03.241Z,10.36
2019-03-22T10:00:03.342Z,10.30
2019-03-22T10:01:03.227Z,10.40
2019-03-22T10:02:03.231Z,10.40
2019-03-22T10:03:03.190Z,10.40
2019-03-22T10:04:03.232Z,10.45
2019-03-22T10:05:03.189Z,10.41
2019-03-22T10:06:03.157Z,10.44
2019-03-22T10:07:03.139Z,10.36
2019-03-22T10:08:03.135Z,10.40
2019-03-22T10:09:05.422Z,10.45
2019-03-22T10:10:03.112Z,10.53
2019-03-22T10:11:03.155Z,10.52
2019-03-22T10:12:03.130Z,10.53
2019-03-22T10:13:03.113Z,10.56
2019-03-22T10:14:03.065Z,10.60
2019-03-22T10:15:03.047Z,10.60
2019-03-22T10:16:03.040Z,10.61
2019-03-22T10:17:03.072Z,10.61
2019-03-22T10:18:03.055Z,10.63
2019-03-22T10:19:03.015Z,10.73
2019-03-22T10:20:02.990Z,10.70
2019-03-22T10:21:02.984Z,10.67
2019-03-22T10:22:03.011Z,10.67
2019-03-22T10:23:02.976Z,10.78
2019-03-22T10:24:03.004Z,10.81
2019-03-22T10:25:02.932Z,10.89
2019-03-22T10:26:02.943Z,10.85
2019-03-22T10:27:05.154Z,10.82
2019-03-22T10:28:02.918Z,10.86
2019-03-22T10:29:02.972Z,10.68
2019-03-22T10:30:02.913Z,10.81
2019-03-22T10:31:02.927Z,10.79
2019-03-22T10:32:02.890Z,10.81
2019-03-22T10:33:02.861Z,10.85
2019-03-22T10:34:02.853Z,10.82
2019-03-22T10:35:02.853Z,10.76
2019-03-22T10:36:02.879Z,10.79
2019-03-22T10:37:02.830Z,10.84
2019-03-22T10:38:04.791Z,10.78
2019-03-22T10:39:02.794Z,10.81
2019-03-22T10:40:02.797Z,10.94
2019-03-22T10:41:02.808Z,10.96
2019-03-22T10:42:02.820Z,10.88
2019-03-22T10:43:02.734Z,10.97
2019-03-22T10:44:02.726Z,10.92
2019-03-22T10:45:02.719Z,10.94
2019-03-22T10:46:02.784Z,11.06
2019-03-22T10:47:02.700Z,10.96
2019-03-22T10:48:02.740Z,11.02
2019-03-22T10:49:02.738Z,11.04
2019-03-22T10:50:02.717Z,11.02
2019-03-22T10:51:02.680Z,10.99
2019-03-22T10:52:04.593Z,11.02
2019-03-22T10:53:02.655Z,10.97
2019-03-22T10:54:02.642Z,10.92
2019-03-22T10:55:17.480Z,11.04
2019-03-22T10:56:03.595Z,11.03
2019-03-22T10:57:02.587Z,10.92
2019-03-22T10:58:02.592Z,11.06
2019-03-22T10:59:02.559Z,11.06
2019-03-22T11:00:02.588Z,11.06
2019-03-22T11:01:02.535Z,11.06
2019-03-22T11:02:03.879Z,10.99
2019-03-22T11:03:02.532Z,11.02
2019-03-22T11:04:02.642Z,11.09
2019-03-22T11:05:02.568Z,11.03
2019-03-22T11:06:02.499Z,11.03
2019-03-22T11:07:02.466Z,11.09
2019-03-22T11:08:02.474Z,11.03
2019-03-22T11:09:02.455Z,11.06
2019-03-22T11:10:02.480Z,11.10
2019-03-22T11:11:02.461Z,11.03
2019-03-22T11:12:11.855Z,11.09
2019-03-22T11:13:03.422Z,11.11
2019-03-22T11:14:02.386Z,11.03
2019-03-22T11:15:02.441Z,11.19
2019-03-22T11:16:02.369Z,11.21
2019-03-22T11:17:02.360Z,11.32
2019-03-22T11:18:02.377Z,11.27
2019-03-22T11:19:02.333Z,11.25
2019-03-22T11:20:02.333Z,11.17
2019-03-22T11:21:05.427Z,11.18
2019-03-22T11:22:02.314Z,11.19
2019-03-22T11:23:02.330Z,11.24
2019-03-22T11:24:02.284Z,11.21
2019-03-22T11:25:02.268Z,11.11
2019-03-22T11:26:04.375Z,11.10
2019-03-22T11:27:02.255Z,11.04
2019-03-22T11:28:02.265Z,11.09
2019-03-22T11:29:02.248Z,11.17
2019-03-22T11:30:02.219Z,11.11
2019-03-22T11:31:04.981Z,11.11
2019-03-22T11:32:12.100Z,11.18
2019-03-22T11:33:03.192Z,11.17
2019-03-22T11:34:02.163Z,11.15
2019-03-22T11:35:02.155Z,11.17
2019-03-22T11:36:02.143Z,11.18
2019-03-22T11:37:02.147Z,11.24
2019-03-22T11:38:02.176Z,11.27
2019-03-22T11:39:02.196Z,11.22
2019-03-22T11:40:02.107Z,11.33
2019-03-22T11:41:02.087Z,11.36
2019-03-22T11:42:02.095Z,11.28
2019-03-22T11:43:08.689Z,11.29
2019-03-22T11:44:03.078Z,11.36
2019-03-22T11:45:02.065Z,11.37
2019-03-22T11:46:02.045Z,11.35
2019-03-22T11:47:02.043Z,11.40
2019-03-22T11:48:02.016Z,11.37
2019-03-22T11:49:02.018Z,11.35
2019-03-22T11:50:01.999Z,11.33
2019-03-22T11:51:01.989Z,11.29
2019-03-22T11:52:01.960Z,11.32
2019-03-22T11:53:01.958Z,11.27
2019-03-22T11:54:01.958Z,11.40
2019-03-22T11:55:01.934Z,11.27
2019-03-22T11:56:01.922Z,11.33
2019-03-22T11:57:01.927Z,11.32
2019-03-22T11:58:01.909Z,11.33
2019-03-22T11:59:01.919Z,11.29
2019-03-22T12:00:01.887Z,11.39
2019-03-22T12:01:01.859Z,11.40
2019-03-22T12:02:01.853Z,11.37
2019-03-22T12:03:01.857Z,11.36
2019-03-22T12:04:01.863Z,11.42
2019-03-22T12:05:01.827Z,11.40
2019-03-22T12:06:01.810Z,11.44
2019-03-22T12:07:01.809Z,11.36
2019-03-22T12:08:01.797Z,11.33
2019-03-22T12:09:01.803Z,11.27
2019-03-22T12:10:01.782Z,11.35
2019-03-22T12:11:01.764Z,11.39
2019-03-22T12:12:01.765Z,11.33
2019-03-22T12:13:01.732Z,11.37
2019-03-22T12:14:01.737Z,11.35
2019-03-22T12:15:01.716Z,11.43
2019-03-22T12:16:01.710Z,11.40
2019-03-22T12:17:01.695Z,11.42
2019-03-22T12:18:01.723Z,11.27
2019-03-22T12:19:01.698Z,11.40
2019-03-22T12:20:01.668Z,11.37
2019-03-22T12:21:01.646Z,11.32
2019-03-22T12:22:01.643Z,11.32
2019-03-22T12:23:01.627Z,11.37
2019-03-22T12:24:01.631Z,11.29
2019-03-22T12:25:01.606Z,11.32
2019-03-22T12:26:01.596Z,11.36
2019-03-22T12:27:01.580Z,11.36
2019-03-22T12:28:01.570Z,11.37
2019-03-22T12:29:01.640Z,11.35
2019-03-22T12:30:01.553Z,11.39
2019-03-22T12:31:01.537Z,11.43
2019-03-22T12:32:01.532Z,11.43
2019-03-22T12:33:01.508Z,11.42
2019-03-22T12:34:01.567Z,11.43
2019-03-22T12:35:01.496Z,11.47
2019-03-22T12:36:01.493Z,11.37
2019-03-22T12:37:01.484Z,11.51
2019-03-22T12:38:01.540Z,11.46
2019-03-22T12:39:01.487Z,11.43
2019-03-22T12:40:01.449Z,11.46
2019-03-22T12:41:01.464Z,11.44
2019-03-22T12:42:01.438Z,11.47
2019-03-22T12:43:01.411Z,11.43
2019-03-22T12:44:01.423Z,11.47
2019-03-22T12:45:01.376Z,11.43
2019-03-22T12:46:01.378Z,11.29
2019-03-22T12:47:01.360Z,11.32
2019-03-22T12:48:01.415Z,11.37
2019-03-22T12:49:01.357Z,11.29
2019-03-22T12:50:01.322Z,11.39
2019-03-22T12:51:01.314Z,11.44
2019-03-22T12:52:01.322Z,11.43
2019-03-22T12:53:01.303Z,11.33
2019-03-22T12:54:01.314Z,11.32
2019-03-22T12:55:01.274Z,11.27
2019-03-22T12:56:01.252Z,11.24
2019-03-22T12:57:01.238Z,11.19
2019-03-22T12:58:01.255Z,11.22
2019-03-22T12:59:01.258Z,11.18
2019-03-22T13:00:01.226Z,11.22
2019-03-22T13:01:01.202Z,11.27
2019-03-22T13:02:01.196Z,11.29
2019-03-22T13:03:01.181Z,11.36
2019-03-22T13:04:01.189Z,11.32
2019-03-22T13:05:01.167Z,11.32
2019-03-22T13:06:01.148Z,11.33
2019-03-22T13:07:01.157Z,11.35